createdAt,value
2023-01-29T00:02:09.343Z,22.73
2023-01-29T00:04:36.488Z,19.30
2023-01-29T00:07:03.252Z,20.90
2023-01-29T00:09:31.439Z,21.02
2023-01-29T00:11:58.348Z,19.55
2023-01-29T00:14:27.292Z,17.10
2023-01-29T00:16:54.782Z,22.98
2023-01-29T00:19:21.649Z,21.00
2023-01-29T00:21:48.423Z,18.13
2023-01-29T00:24:16.427Z,24.25
2023-01-29T00:26:43.266Z,21.15
2023-01-29T00:29:10.581Z,22.00
2023-01-29T00:31:37.533Z,19.40
2023-01-29T00:34:04.384Z,22.35
2023-01-29T00:36:31.198Z,20.25
2023-01-29T00:39:00.736Z,20.15
2023-01-29T00:41:48.761Z,28.08
2023-01-29T00:44:34.354Z,20.80
2023-01-29T00:47:01.235Z,20.92
2023-01-29T00:49:28.120Z,18.85
2023-01-29T00:52:13.630Z,22.33
2023-01-29T00:54:40.574Z,19.80
2023-01-29T00:57:07.330Z,19.70
2023-01-29T00:59:34.156Z,20.20
2023-01-29T01:02:19.449Z,21.02
2023-01-29T01:04:46.416Z,19.63
2023-01-29T01:09:57.426Z,19.80
2023-01-29T01:12:24.248Z,26.33
2023-01-29T01:14:51.053Z,18.20
2023-01-29T01:17:17.868Z,23.38
2023-01-29T01:19:44.671Z,17.55
2023-01-29T01:22:11.683Z,19.38
2023-01-29T01:24:38.697Z,17.05
2023-01-29T01:27:06.046Z,15.77
2023-01-29T01:29:33.145Z,18.65
2023-01-29T01:32:00.231Z,20.27
2023-01-29T01:34:27.370Z,21.48
2023-01-29T01:36:56.068Z,16.55
2023-01-29T01:39:26.084Z,19.35
2023-01-29T01:41:56.050Z,15.63
2023-01-29T01:44:51.123Z,15.65
2023-01-29T01:47:20.716Z,14.27
2023-01-29T01:49:48.005Z,13.98
2023-01-29T01:52:17.527Z,12.07
2023-01-29T01:54:44.911Z,10.95
2023-01-29T01:57:17.486Z,14.73
2023-01-29T01:59:50.339Z,14.55
2023-01-29T02:02:36.150Z,10.15
2023-01-29T02:05:21.762Z,7.90
2023-01-29T02:08:08.717Z,7.80
2023-01-29T02:10:42.130Z,7.20
2023-01-29T02:13:09.505Z,6.88
2023-01-29T02:15:36.448Z,7.00
2023-01-29T02:18:03.642Z,7.43
2023-01-29T02:20:34.659Z,8.43
2023-01-29T02:23:40.584Z,8.32
2023-01-29T02:26:23.902Z,7.07
2023-01-29T02:28:52.793Z,8.45
2023-01-29T02:31:44.432Z,7.00
2023-01-29T02:34:18.817Z,8.30
2023-01-29T02:36:52.025Z,9.25
2023-01-29T02:39:34.167Z,8.02
2023-01-29T02:42:22.271Z,10.10
2023-01-29T02:44:59.444Z,9.15
2023-01-29T02:47:47.884Z,9.38
2023-01-29T02:50:26.259Z,13.23
2023-01-29T02:53:00.667Z,10.13
2023-01-29T02:55:39.797Z,10.32
2023-01-29T02:58:21.891Z,9.95
2023-01-29T03:00:51.116Z,10.52
2023-01-29T03:03:28.657Z,11.23
2023-01-29T03:06:02.561Z,11.68
2023-01-29T03:08:43.355Z,8.90
2023-01-29T03:11:15.478Z,9.27
2023-01-29T03:13:48.011Z,10.82
2023-01-29T03:16:40.498Z,9.18
2023-01-29T03:19:32.024Z,11.65
2023-01-29T03:22:04.240Z,8.85
2023-01-29T03:25:11.920Z,8.85
2023-01-29T03:28:11.001Z,9.15
2023-01-29T03:31:01.687Z,9.93
2023-01-29T03:33:33.605Z,9.50
2023-01-29T03:36:10.193Z,9.63
2023-01-29T03:38:37.073Z,10.68
2023-01-29T03:41:12.578Z,12.40
2023-01-29T03:44:05.811Z,9.85
2023-01-29T03:46:38.337Z,13.48
2023-01-29T03:49:20.399Z,13.63
2023-01-29T03:52:08.269Z,12.50
2023-01-29T03:54:54.037Z,13.93
2023-01-29T03:57:39.242Z,11.68
2023-01-29T04:00:21.386Z,12.40
2023-01-29T04:02:56.840Z,9.82
2023-01-29T04:05:30.314Z,11.90
2023-01-29T04:08:04.772Z,9.88
2023-01-29T04:10:35.834Z,10.77
2023-01-29T04:13:10.541Z,10.07
2023-01-29T04:15:44.149Z,11.45
2023-01-29T04:18:11.335Z,10.60
2023-01-29T04:20:38.414Z,11.20
2023-01-29T04:23:26.144Z,8.38
2023-01-29T04:25:55.671Z,10.73
2023-01-29T04:29:00.168Z,11.07
2023-01-29T04:31:37.537Z,11.05
2023-01-29T04:34:19.882Z,11.90
2023-01-29T04:37:16.919Z,11.82
2023-01-29T04:40:07.053Z,11.32
2023-01-29T04:42:42.851Z,11.18
2023-01-29T04:45:20.089Z,10.02
2023-01-29T04:48:26.299Z,10.90
2023-01-29T04:51:06.034Z,10.32
2023-01-29T04:53:52.654Z,12.02
2023-01-29T04:56:39.668Z,13.73
2023-01-29T04:59:13.118Z,11.35
2023-01-29T05:01:39.992Z,12.80
2023-01-29T05:04:11.039Z,11.55
2023-01-29T05:06:39.244Z,13.25
2023-01-29T05:09:07.786Z,15.07
2023-01-29T05:11:35.848Z,11.93
2023-01-29T05:14:05.145Z,13.15
2023-01-29T05:16:42.385Z,11.70
2023-01-29T05:19:14.818Z,15.95
2023-01-29T05:21:46.934Z,11.43
2023-01-29T05:24:25.011Z,13.13
2023-01-29T05:27:13.331Z,14.05
2023-01-29T05:29:45.895Z,10.43
2023-01-29T05:32:13.001Z,12.85
2023-01-29T05:34:39.915Z,11.65
2023-01-29T05:37:06.735Z,10.02
2023-01-29T05:39:33.547Z,12.05
2023-01-29T05:42:00.719Z,11.77
2023-01-29T05:44:27.686Z,11.27
2023-01-29T05:46:54.597Z,12.10
2023-01-29T05:49:22.571Z,10.85
2023-01-29T05:51:49.393Z,12.27
2023-01-29T05:54:16.210Z,12.32
2023-01-29T05:56:43.032Z,12.30
2023-01-29T05:59:09.891Z,12.27
2023-01-29T06:01:36.996Z,12.38
2023-01-29T06:04:03.905Z,12.20
2023-01-29T06:06:30.899Z,11.95
2023-01-29T06:08:57.707Z,12.40
2023-01-29T06:11:24.727Z,12.05
2023-01-29T06:13:51.595Z,16.13
2023-01-29T06:16:18.452Z,13.50
2023-01-29T06:18:45.281Z,12.73
2023-01-29T06:21:13.688Z,12.63
2023-01-29T06:23:41.138Z,13.05
2023-01-29T06:26:11.593Z,11.63
2023-01-29T06:28:38.831Z,14.75
2023-01-29T06:31:24.986Z,12.90
2023-01-29T06:33:54.262Z,15.98
2023-01-29T06:36:21.075Z,11.90
2023-01-29T06:38:48.200Z,13.38
2023-01-29T06:41:18.652Z,10.73
2023-01-29T06:43:46.870Z,13.43
2023-01-29T06:46:14.300Z,12.30
2023-01-29T06:48:41.106Z,13.93
2023-01-29T06:51:10.053Z,11.95
2023-01-29T06:53:38.404Z,16.23
2023-01-29T06:56:06.199Z,12.35
2023-01-29T06:58:33.746Z,12.60
2023-01-29T07:01:15.552Z,13.65
2023-01-29T07:03:52.579Z,12.32
2023-01-29T07:06:19.878Z,12.65
2023-01-29T07:08:46.885Z,11.32
2023-01-29T07:11:13.800Z,13.13
2023-01-29T07:13:40.606Z,12.18
2023-01-29T07:16:07.633Z,13.48
2023-01-29T07:18:34.565Z,13.07
2023-01-29T07:21:06.542Z,12.10
2023-01-29T07:23:34.297Z,13.75
2023-01-29T07:26:03.244Z,13.48
2023-01-29T07:28:30.192Z,13.10
2023-01-29T07:31:00.095Z,15.15
2023-01-29T07:33:26.964Z,13.25
2023-01-29T07:35:53.888Z,11.73
2023-01-29T07:38:20.836Z,12.30
2023-01-29T07:40:48.082Z,15.98
2023-01-29T07:43:15.057Z,10.50
2023-01-29T07:45:41.941Z,11.80
2023-01-29T07:48:11.650Z,12.25
2023-01-29T07:50:39.519Z,12.75
2023-01-29T07:53:06.397Z,14.00
2023-01-29T07:55:33.457Z,12.65
2023-01-29T07:58:04.043Z,12.27
2023-01-29T08:00:32.122Z,12.38
2023-01-29T08:03:03.681Z,12.77
2023-01-29T08:05:30.640Z,12.80
2023-01-29T08:08:06.544Z,9.98
2023-01-29T08:10:35.999Z,10.75
2023-01-29T08:13:03.572Z,11.73
2023-01-29T08:15:31.205Z,13.18
2023-01-29T08:17:58.596Z,12.10
2023-01-29T08:20:25.918Z,12.90
2023-01-29T08:23:04.601Z,11.32
2023-01-29T08:25:31.939Z,11.90
2023-01-29T08:28:00.189Z,13.30
2023-01-29T08:30:29.340Z,14.05
2023-01-29T08:32:56.169Z,11.43
2023-01-29T08:35:23.463Z,12.75
2023-01-29T08:37:59.498Z,13.55
2023-01-29T08:40:29.219Z,13.52
2023-01-29T08:43:02.135Z,12.35
2023-01-29T08:45:30.310Z,13.80
2023-01-29T08:47:57.384Z,15.45
2023-01-29T08:50:24.307Z,13.77
2023-01-29T08:52:51.449Z,17.55
2023-01-29T08:55:18.639Z,13.32
2023-01-29T08:57:45.703Z,12.27
2023-01-29T09:00:13.040Z,12.65
2023-01-29T09:02:40.039Z,12.40
2023-01-29T09:05:07.406Z,14.20
2023-01-29T09:07:34.311Z,12.80
2023-01-29T09:10:01.871Z,12.50
2023-01-29T09:12:28.709Z,13.48
2023-01-29T09:14:55.522Z,12.30
2023-01-29T09:17:22.396Z,12.30
2023-01-29T09:19:49.154Z,14.20
2023-01-29T09:22:16.030Z,11.95
2023-01-29T09:24:42.797Z,13.20
2023-01-29T09:27:10.115Z,12.70
2023-01-29T09:29:37.207Z,12.35
2023-01-29T09:32:05.287Z,10.75
2023-01-29T09:34:34.222Z,11.63
2023-01-29T09:37:01.036Z,12.20
2023-01-29T09:39:27.795Z,15.60
2023-01-29T09:42:31.094Z,12.38
2023-01-29T09:45:26.940Z,13.20
2023-01-29T09:47:59.062Z,13.63
2023-01-29T09:50:37.353Z,13.18
2023-01-29T09:53:27.430Z,13.63
2023-01-29T09:56:17.011Z,13.82
2023-01-29T09:58:44.213Z,11.13
2023-01-29T10:01:20.967Z,14.35
2023-01-29T10:03:59.429Z,13.75
2023-01-29T10:06:51.169Z,11.85
2023-01-29T10:09:26.760Z,12.93
2023-01-29T10:12:24.350Z,12.85
2023-01-29T10:15:12.086Z,11.65
2023-01-29T10:17:54.669Z,11.77
2023-01-29T10:20:48.940Z,9.30
2023-01-29T10:23:34.359Z,11.63
2023-01-29T10:26:01.692Z,12.55
2023-01-29T10:28:37.076Z,13.13
2023-01-29T10:31:25.351Z,11.75
2023-01-29T10:34:02.470Z,10.75
2023-01-29T10:36:42.921Z,11.70
2023-01-29T10:39:20.814Z,10.05
2023-01-29T10:41:54.055Z,13.70
2023-01-29T10:44:29.073Z,10.88
2023-01-29T10:47:13.896Z,12.10
2023-01-29T10:49:40.619Z,9.77
2023-01-29T10:52:19.543Z,11.27
2023-01-29T10:54:59.802Z,11.18
2023-01-29T10:57:58.609Z,10.23
2023-01-29T11:00:37.983Z,10.70
2023-01-29T11:03:27.041Z,11.95
2023-01-29T11:06:12.988Z,12.75
2023-01-29T11:08:46.552Z,10.88
2023-01-29T11:11:15.824Z,12.65
2023-01-29T11:14:10.103Z,11.52
2023-01-29T11:16:48.385Z,10.35
2023-01-29T11:19:16.371Z,9.98
2023-01-29T11:21:59.224Z,9.98
2023-01-29T11:24:26.628Z,9.50
2023-01-29T11:26:57.561Z,9.38
2023-01-29T11:29:30.066Z,9.10
2023-01-29T11:32:03.683Z,9.50
2023-01-29T11:34:33.413Z,10.27
2023-01-29T11:37:15.036Z,9.80
2023-01-29T11:39:47.261Z,12.30
2023-01-29T11:42:22.066Z,11.65
2023-01-29T11:44:49.539Z,11.48
2023-01-29T11:47:16.278Z,11.80
2023-01-29T11:49:49.637Z,10.50
2023-01-29T11:52:19.825Z,8.40
2023-01-29T11:55:21.524Z,11.57
2023-01-29T11:57:57.432Z,11.10
2023-01-29T12:00:30.002Z,11.05
2023-01-29T12:03:16.777Z,11.18
2023-01-29T12:05:56.541Z,11.10
2023-01-29T12:08:24.990Z,11.00
2023-01-29T12:10:51.764Z,10.98
2023-01-29T12:13:37.008Z,12.00
2023-01-29T12:16:12.860Z,12.30
2023-01-29T12:18:44.978Z,12.90
2023-01-29T12:21:42.354Z,13.10
2023-01-29T12:24:33.802Z,15.25
2023-01-29T12:27:18.938Z,11.50
2023-01-29T12:29:54.668Z,10.85
2023-01-29T12:32:55.765Z,14.05
2023-01-29T12:35:35.579Z,12.88
2023-01-29T12:38:17.407Z,11.13
2023-01-29T12:40:55.279Z,13.80
2023-01-29T12:43:48.218Z,12.95
2023-01-29T12:46:29.421Z,15.27
2023-01-29T12:49:01.575Z,13.13
2023-01-29T12:51:50.144Z,13.70
2023-01-29T12:54:27.920Z,13.57
2023-01-29T12:56:59.876Z,13.68
2023-01-29T12:59:31.624Z,12.23
2023-01-29T13:02:15.934Z,13.98
2023-01-29T13:04:48.487Z,14.43
2023-01-29T13:07:18.905Z,13.07
2023-01-29T13:09:53.229Z,15.30
2023-01-29T13:12:22.668Z,13.63
2023-01-29T13:14:57.814Z,14.82
2023-01-29T13:17:35.968Z,15.95
2023-01-29T13:20:38.568Z,14.80
2023-01-29T13:23:21.442Z,14.18
2023-01-29T13:25:54.888Z,13.63
2023-01-29T13:28:25.394Z,16.25
2023-01-29T13:31:14.083Z,13.52
2023-01-29T13:33:43.267Z,19.65
2023-01-29T13:36:21.995Z,13.35
2023-01-29T13:38:57.956Z,15.35
2023-01-29T13:41:36.932Z,13.95
2023-01-29T13:44:07.552Z,12.60
2023-01-29T13:46:34.639Z,13.18
2023-01-29T13:49:04.969Z,14.65
2023-01-29T13:51:36.399Z,15.93
2023-01-29T13:54:20.337Z,12.60
2023-01-29T13:56:59.389Z,14.48
2023-01-29T13:59:51.312Z,13.70
2023-01-29T14:02:27.944Z,15.10
2023-01-29T14:05:29.509Z,16.17
2023-01-29T14:08:06.242Z,12.90
2023-01-29T14:10:34.871Z,16.10
2023-01-29T14:13:04.378Z,14.68
2023-01-29T14:15:36.401Z,18.33
2023-01-29T14:18:23.383Z,15.77
2023-01-29T14:20:57.728Z,14.20
2023-01-29T14:23:31.205Z,15.32
2023-01-29T14:26:00.854Z,13.30
2023-01-29T14:28:30.689Z,13.35
2023-01-29T14:30:57.813Z,15.77
2023-01-29T14:33:40.996Z,13.32
2023-01-29T14:36:16.122Z,12.23
2023-01-29T14:38:52.536Z,11.75
2023-01-29T14:41:26.614Z,13.32
2023-01-29T14:44:31.567Z,13.35
2023-01-29T14:46:58.468Z,15.55
2023-01-29T14:49:50.826Z,14.02
2023-01-29T14:52:20.270Z,18.10
2023-01-29T14:54:48.727Z,14.85
2023-01-29T14:57:17.977Z,15.57
2023-01-29T14:59:55.168Z,13.32
2023-01-29T15:02:39.769Z,17.63
2023-01-29T15:05:22.265Z,14.55
2023-01-29T15:07:55.077Z,13.02
2023-01-29T15:10:45.611Z,12.93
2023-01-29T15:13:22.182Z,13.38
2023-01-29T15:16:10.878Z,11.05
2023-01-29T15:18:40.094Z,11.77
2023-01-29T15:21:15.290Z,12.25
2023-01-29T15:23:43.263Z,13.15
2023-01-29T15:26:12.360Z,11.85
2023-01-29T15:28:39.888Z,15.75
2023-01-29T15:31:13.257Z,13.55
2023-01-29T15:33:45.173Z,12.23
2023-01-29T15:36:20.887Z,14.05
2023-01-29T15:38:47.969Z,11.45
2023-01-29T15:41:24.305Z,15.10
2023-01-29T15:43:57.705Z,14.60
2023-01-29T15:46:29.083Z,12.65
2023-01-29T15:48:58.185Z,15.80
2023-01-29T15:51:27.222Z,13.27
2023-01-29T15:54:00.628Z,20.13
2023-01-29T15:56:41.320Z,13.90
2023-01-29T15:59:12.632Z,16.90
2023-01-29T16:01:39.496Z,13.85
2023-01-29T16:04:09.243Z,15.43
2023-01-29T16:06:39.828Z,13.45
2023-01-29T16:09:08.217Z,13.88
2023-01-29T16:11:36.229Z,13.07
2023-01-29T16:14:05.119Z,13.60
2023-01-29T16:16:32.154Z,16.63
2023-01-29T16:19:00.793Z,15.50
2023-01-29T16:21:37.888Z,13.18
2023-01-29T16:24:15.869Z,13.63
2023-01-29T16:26:45.719Z,12.57
2023-01-29T16:29:18.551Z,14.63
2023-01-29T16:31:47.752Z,15.60
2023-01-29T16:34:19.389Z,11.70
2023-01-29T16:36:48.343Z,15.25
2023-01-29T16:39:38.283Z,16.45
2023-01-29T16:42:12.323Z,15.90
2023-01-29T16:45:01.311Z,15.15
2023-01-29T16:47:39.340Z,17.42
2023-01-29T16:50:18.469Z,16.08
2023-01-29T16:52:58.150Z,14.13
2023-01-29T16:55:25.796Z,15.25
2023-01-29T16:57:55.137Z,14.40
2023-01-29T17:00:27.732Z,13.70
2023-01-29T17:03:15.461Z,14.50
2023-01-29T17:05:42.581Z,15.27
2023-01-29T17:08:29.858Z,15.82
2023-01-29T17:10:57.051Z,13.23
2023-01-29T17:13:45.536Z,17.90
2023-01-29T17:16:27.480Z,18.65
2023-01-29T17:18:54.756Z,16.45
2023-01-29T17:21:21.586Z,21.65
2023-01-29T17:23:48.454Z,16.88
2023-01-29T17:26:17.505Z,19.15
2023-01-29T17:28:44.870Z,15.80
2023-01-29T17:31:11.853Z,16.20
2023-01-29T17:33:42.754Z,15.52
2023-01-29T17:36:16.286Z,17.45
2023-01-29T17:38:43.385Z,17.55
2023-01-29T17:41:26.883Z,17.08
2023-01-29T17:43:53.976Z,16.58
2023-01-29T17:46:21.244Z,15.52
2023-01-29T17:48:49.427Z,14.85
2023-01-29T17:51:17.790Z,16.38
2023-01-29T17:53:46.599Z,14.45
2023-01-29T17:56:18.846Z,15.02
2023-01-29T17:58:45.748Z,14.43
2023-01-29T18:01:12.568Z,17.33
2023-01-29T18:03:39.416Z,16.60
2023-01-29T18:06:10.010Z,14.98
2023-01-29T18:08:39.604Z,17.65
2023-01-29T18:11:06.515Z,21.05
2023-01-29T18:13:36.156Z,17.73
2023-01-29T18:16:03.128Z,19.25
2023-01-29T18:18:30.131Z,15.85
2023-01-29T18:20:56.929Z,21.20
2023-01-29T18:23:23.742Z,16.10
2023-01-29T18:25:50.539Z,15.60
2023-01-29T18:28:18.027Z,15.10
2023-01-29T18:30:47.185Z,18.42
2023-01-29T18:33:15.713Z,19.30
2023-01-29T18:35:44.906Z,16.30
2023-01-29T18:38:11.816Z,15.68
2023-01-29T18:40:38.681Z,16.48
2023-01-29T18:43:05.565Z,19.92
2023-01-29T18:45:32.496Z,19.55
2023-01-29T18:47:59.475Z,17.45
2023-01-29T18:50:26.511Z,23.77
2023-01-29T18:52:54.268Z,19.25
2023-01-29T18:55:21.720Z,17.63
2023-01-29T18:58:25.118Z,19.88
2023-01-29T19:00:39.185Z,18.17
2023-01-29T19:03:05.990Z,17.90
2023-01-29T19:05:34.093Z,18.50
2023-01-29T19:08:01.882Z,18.77
2023-01-29T19:10:28.839Z,20.05
2023-01-29T19:12:55.659Z,20.95
2023-01-29T19:15:22.951Z,21.40
2023-01-29T19:17:53.063Z,17.35
2023-01-29T19:20:20.295Z,15.52
2023-01-29T19:22:47.135Z,21.05
2023-01-29T19:25:14.179Z,23.38
2023-01-29T19:27:41.122Z,22.88
2023-01-29T19:30:09.155Z,21.67
2023-01-29T19:32:35.974Z,20.67
2023-01-29T19:35:02.819Z,17.90
2023-01-29T19:37:30.931Z,24.75
2023-01-29T19:39:58.070Z,19.23
2023-01-29T19:42:25.035Z,19.63
2023-01-29T19:44:53.466Z,18.60
2023-01-29T19:47:20.603Z,19.95
2023-01-29T19:49:47.552Z,18.48
2023-01-29T19:52:49.755Z,26.73
2023-01-29T19:55:18.811Z,18.80
2023-01-29T19:57:46.267Z,18.73
2023-01-29T20:00:17.430Z,20.95
2023-01-29T20:02:44.349Z,20.73
2023-01-29T20:05:13.026Z,19.35
2023-01-29T20:07:42.331Z,17.52
2023-01-29T20:10:11.565Z,18.63
2023-01-29T20:12:38.502Z,20.33
2023-01-29T20:15:07.358Z,18.48
2023-01-29T20:17:34.254Z,25.58
2023-01-29T20:20:01.154Z,17.85
2023-01-29T20:22:29.653Z,23.77
2023-01-29T20:24:56.499Z,25.10
2023-01-29T20:27:23.345Z,22.10
2023-01-29T20:29:52.512Z,20.90
2023-01-29T20:32:19.466Z,22.17
2023-01-29T20:34:49.689Z,23.35
2023-01-29T20:37:16.528Z,23.33
2023-01-29T20:39:43.313Z,21.40
2023-01-29T20:42:10.112Z,20.38
2023-01-29T20:44:36.904Z,23.35
2023-01-29T20:47:04.170Z,25.23
2023-01-29T20:49:31.735Z,20.55
2023-01-29T20:51:58.538Z,21.58
2023-01-29T20:54:25.428Z,20.33
2023-01-29T20:56:52.353Z,22.42
2023-01-29T20:59:19.597Z,22.42
2023-01-29T21:01:46.609Z,19.42
2023-01-29T21:04:13.472Z,21.20
2023-01-29T21:06:40.351Z,22.15
2023-01-29T21:09:07.221Z,21.25
2023-01-29T21:11:34.265Z,20.48
2023-01-29T21:14:01.936Z,27.05
2023-01-29T21:16:29.170Z,22.25
2023-01-29T21:18:59.651Z,24.67
2023-01-29T21:21:26.926Z,26.83
2023-01-29T21:23:54.274Z,23.88
2023-01-29T21:26:21.271Z,24.40
2023-01-29T21:28:48.123Z,21.38
2023-01-29T21:31:16.945Z,25.75
2023-01-29T21:33:44.414Z,24.40
2023-01-29T21:36:11.668Z,25.50
2023-01-29T21:38:39.318Z,20.90
2023-01-29T21:41:09.656Z,24.92
2023-01-29T21:43:37.338Z,25.08
2023-01-29T21:46:11.422Z,23.08
2023-01-29T21:48:39.848Z,24.75
2023-01-29T21:51:07.567Z,25.50
2023-01-29T21:53:34.952Z,27.45
2023-01-29T21:56:03.064Z,23.73
2023-01-29T21:58:30.613Z,26.30
2023-01-29T22:00:57.460Z,22.85
2023-01-29T22:03:47.071Z,23.48
2023-01-29T22:06:14.445Z,29.25
2023-01-29T22:08:41.256Z,29.40
2023-01-29T22:11:08.495Z,23.33
2023-01-29T22:13:35.396Z,24.38
2023-01-29T22:16:02.323Z,24.35
2023-01-29T22:18:29.170Z,34.65
2023-01-29T22:20:56.935Z,26.40
2023-01-29T22:23:24.519Z,23.83
2023-01-29T22:25:51.309Z,28.60
2023-01-29T22:28:18.973Z,24.98
2023-01-29T22:30:45.945Z,29.63
2023-01-29T22:33:12.855Z,30.42
2023-01-29T22:35:39.706Z,26.88
2023-01-29T22:38:06.692Z,28.40
2023-01-29T22:40:33.478Z,29.95
2023-01-29T22:43:00.306Z,28.83
2023-01-29T22:45:27.348Z,27.20
2023-01-29T22:47:54.192Z,29.63
2023-01-29T22:50:21.076Z,26.83
2023-01-29T22:52:53.621Z,30.67
2023-01-29T22:55:20.815Z,28.73
2023-01-29T22:57:51.105Z,30.30
2023-01-29T23:00:18.729Z,25.83
2023-01-29T23:02:49.480Z,27.00
2023-01-29T23:05:17.331Z,32.25
2023-01-29T23:07:44.618Z,26.52
2023-01-29T23:10:15.656Z,31.45
2023-01-29T23:12:42.663Z,28.60
2023-01-29T23:15:09.757Z,28.73
2023-01-29T23:17:36.958Z,27.33
2023-01-29T23:20:04.041Z,30.90
2023-01-29T23:22:30.895Z,31.02
2023-01-29T23:24:57.724Z,28.90
2023-01-29T23:27:24.568Z,33.00
2023-01-29T23:29:51.379Z,30.60
2023-01-29T23:32:20.803Z,28.30
2023-01-29T23:34:47.949Z,28.73
2023-01-29T23:37:14.748Z,32.92
2023-01-29T23:39:41.600Z,27.67
2023-01-29T23:42:08.530Z,34.55
2023-01-29T23:44:35.932Z,27.85
2023-01-29T23:47:02.763Z,28.50
2023-01-29T23:49:29.597Z,27.25
2023-01-29T23:51:56.407Z,28.95
2023-01-29T23:54:23.335Z,33.72
2023-01-29T23:56:50.161Z,30.02
2023-01-29T23:59:17.156Z,30.60
